sensor_id;sensor_type;location;lat;lon;timestamp;temperature;humidity
13251;DHT22;6692;50.710;7.180;2023-07-08T00:01:04;20.30;95.80
13251;DHT22;6692;50.710;7.180;2023-07-08T00:03:04;20.20;95.70
13251;DHT22;6692;50.710;7.180;2023-07-08T00:05:05;20.30;95.80
13251;DHT22;6692;50.710;7.180;2023-07-08T00:07:08;20.20;95.90
13251;DHT22;6692;50.710;7.180;2023-07-08T00:09:09;20.20;95.90
13251;DHT22;6692;50.710;7.180;2023-07-08T00:11:09;20.20;95.90
13251;DHT22;6692;50.710;7.180;2023-07-08T00:13:09;20.20;96.00
13251;DHT22;6692;50.710;7.180;2023-07-08T00:15:10;20.10;96.20
13251;DHT22;6692;50.710;7.180;2023-07-08T00:17:11;20.10;96.20
13251;DHT22;6692;50.710;7.180;2023-07-08T00:19:12;20.10;96.30
13251;DHT22;6692;50.710;7.180;2023-07-08T00:21:14;20.00;96.30
13251;DHT22;6692;50.710;7.180;2023-07-08T00:23:14;20.10;96.30
13251;DHT22;6692;50.710;7.180;2023-07-08T00:25:14;20.00;96.30
13251;DHT22;6692;50.710;7.180;2023-07-08T00:27:15;20.00;96.40
13251;DHT22;6692;50.710;7.180;2023-07-08T00:29:16;20.00;96.50
13251;DHT22;6692;50.710;7.180;2023-07-08T00:31:17;19.90;96.60
13251;DHT22;6692;50.710;7.180;2023-07-08T00:33:18;19.90;96.60
13251;DHT22;6692;50.710;7.180;2023-07-08T00:35:20;19.90;96.70
13251;DHT22;6692;50.710;7.180;2023-07-08T00:37:20;19.90;96.70
13251;DHT22;6692;50.710;7.180;2023-07-08T00:39:21;19.90;96.80
13251;DHT22;6692;50.710;7.180;2023-07-08T00:41:31;19.90;96.80
13251;DHT22;6692;50.710;7.180;2023-07-08T00:43:42;19.90;96.90
13251;DHT22;6692;50.710;7.180;2023-07-08T00:45:42;19.90;96.90
13251;DHT22;6692;50.710;7.180;2023-07-08T00:47:41;19.90;97.00
13251;DHT22;6692;50.710;7.180;2023-07-08T00:49:45;19.80;97.00
13251;DHT22;6692;50.710;7.180;2023-07-08T00:51:44;19.80;97.00
13251;DHT22;6692;50.710;7.180;2023-07-08T00:53:45;19.80;97.10
13251;DHT22;6692;50.710;7.180;2023-07-08T00:55:46;19.80;97.10
13251;DHT22;6692;50.710;7.180;2023-07-08T00:57:47;19.80;97.10
13251;DHT22;6692;50.710;7.180;2023-07-08T00:59:53;19.80;97.10
13251;DHT22;6692;50.710;7.180;2023-07-08T01:01:50;19.80;97.10
13251;DHT22;6692;50.710;7.180;2023-07-08T01:03:56;19.70;97.10
13251;DHT22;6692;50.710;7.180;2023-07-08T01:05:56;19.70;97.10
13251;DHT22;6692;50.710;7.180;2023-07-08T01:07:57;19.70;97.10
13251;DHT22;6692;50.710;7.180;2023-07-08T01:09:58;19.70;97.50
13251;DHT22;6692;50.710;7.180;2023-07-08T01:11:58;19.70;97.50
13251;DHT22;6692;50.710;7.180;2023-07-08T01:13:59;19.70;97.20
13251;DHT22;6692;50.710;7.180;2023-07-08T01:15:59;19.70;97.20
13251;DHT22;6692;50.710;7.180;2023-07-08T01:18:00;19.70;97.30
13251;DHT22;6692;50.710;7.180;2023-07-08T01:20:02;19.70;97.40
13251;DHT22;6692;50.710;7.180;2023-07-08T01:22:03;19.60;97.40
13251;DHT22;6692;50.710;7.180;2023-07-08T01:24:07;19.60;97.40
13251;DHT22;6692;50.710;7.180;2023-07-08T01:26:08;19.60;97.50
13251;DHT22;6692;50.710;7.180;2023-07-08T01:28:09;19.60;97.50
13251;DHT22;6692;50.710;7.180;2023-07-08T01:30:10;19.60;97.70
13251;DHT22;6692;50.710;7.180;2023-07-08T01:32:12;19.50;97.70
13251;DHT22;6692;50.710;7.180;2023-07-08T01:34:12;19.50;97.90
13251;DHT22;6692;50.710;7.180;2023-07-08T01:36:13;19.50;97.80
13251;DHT22;6692;50.710;7.180;2023-07-08T01:38:14;19.50;97.80
13251;DHT22;6692;50.710;7.180;2023-07-08T01:40:30;19.40;97.80
13251;DHT22;6692;50.710;7.180;2023-07-08T01:42:29;19.40;98.00
13251;DHT22;6692;50.710;7.180;2023-07-08T01:44:32;19.40;98.00
13251;DHT22;6692;50.710;7.180;2023-07-08T01:46:31;19.30;98.10
13251;DHT22;6692;50.710;7.180;2023-07-08T01:48:33;19.30;98.30
13251;DHT22;6692;50.710;7.180;2023-07-08T01:50:35;19.20;98.40
13251;DHT22;6692;50.710;7.180;2023-07-08T01:52:35;19.20;98.40
13251;DHT22;6692;50.710;7.180;2023-07-08T01:54:35;19.20;98.50
13251;DHT22;6692;50.710;7.180;2023-07-08T01:56:36;19.20;98.50
13251;DHT22;6692;50.710;7.180;2023-07-08T01:58:37;19.20;98.60
13251;DHT22;6692;50.710;7.180;2023-07-08T02:00:38;19.20;98.80
13251;DHT22;6692;50.710;7.180;2023-07-08T02:02:39;19.20;98.80
13251;DHT22;6692;50.710;7.180;2023-07-08T02:04:39;19.20;98.80
13251;DHT22;6692;50.710;7.180;2023-07-08T02:06:41;19.10;99.00
13251;DHT22;6692;50.710;7.180;2023-07-08T02:08:41;19.10;98.90
13251;DHT22;6692;50.710;7.180;2023-07-08T02:10:44;19.10;99.00
13251;DHT22;6692;50.710;7.180;2023-07-08T02:12:43;19.10;99.10
13251;DHT22;6692;50.710;7.180;2023-07-08T02:14:44;19.10;99.10
13251;DHT22;6692;50.710;7.180;2023-07-08T02:16:44;19.10;99.20
13251;DHT22;6692;50.710;7.180;2023-07-08T02:18:45;19.00;99.20
13251;DHT22;6692;50.710;7.180;2023-07-08T02:20:46;19.00;99.20
13251;DHT22;6692;50.710;7.180;2023-07-08T02:22:48;18.90;99.30
13251;DHT22;6692;50.710;7.180;2023-07-08T02:24:48;18.90;99.30
13251;DHT22;6692;50.710;7.180;2023-07-08T02:26:49;18.90;99.40
13251;DHT22;6692;50.710;7.180;2023-07-08T02:28:51;18.80;99.40
13251;DHT22;6692;50.710;7.180;2023-07-08T02:30:51;18.80;99.40
13251;DHT22;6692;50.710;7.180;2023-07-08T02:32:52;18.80;99.50
13251;DHT22;6692;50.710;7.180;2023-07-08T02:34:53;18.80;99.50
13251;DHT22;6692;50.710;7.180;2023-07-08T02:36:53;18.70;99.70
13251;DHT22;6692;50.710;7.180;2023-07-08T02:38:54;18.70;99.60
13251;DHT22;6692;50.710;7.180;2023-07-08T02:40:55;18.70;99.70
13251;DHT22;6692;50.710;7.180;2023-07-08T02:42:55;18.70;99.70
13251;DHT22;6692;50.710;7.180;2023-07-08T02:44:56;18.60;99.70
13251;DHT22;6692;50.710;7.180;2023-07-08T02:46:57;18.60;99.80
13251;DHT22;6692;50.710;7.180;2023-07-08T02:48:58;18.60;99.70
13251;DHT22;6692;50.710;7.180;2023-07-08T02:50:59;18.60;99.80
13251;DHT22;6692;50.710;7.180;2023-07-08T02:53:00;18.60;99.80
13251;DHT22;6692;50.710;7.180;2023-07-08T02:55:01;18.60;99.80
13251;DHT22;6692;50.710;7.180;2023-07-08T02:57:02;18.50;99.80
13251;DHT22;6692;50.710;7.180;2023-07-08T02:59:03;18.50;99.90
13251;DHT22;6692;50.710;7.180;2023-07-08T03:01:04;18.50;99.90
13251;DHT22;6692;50.710;7.180;2023-07-08T03:03:04;18.50;99.90
13251;DHT22;6692;50.710;7.180;2023-07-08T03:05:06;18.50;99.90
13251;DHT22;6692;50.710;7.180;2023-07-08T03:07:07;18.50;99.90
13251;DHT22;6692;50.710;7.180;2023-07-08T03:09:07;18.40;99.90
13251;DHT22;6692;50.710;7.180;2023-07-08T03:11:08;18.40;99.90
13251;DHT22;6692;50.710;7.180;2023-07-08T03:13:09;18.40;99.90
13251;DHT22;6692;50.710;7.180;2023-07-08T03:15:10;18.40;99.90
13251;DHT22;6692;50.710;7.180;2023-07-08T03:17:11;18.40;99.90
13251;DHT22;6692;50.710;7.180;2023-07-08T03:19:11;18.40;99.90
13251;DHT22;6692;50.710;7.180;2023-07-08T03:21:13;18.40;99.90
13251;DHT22;6692;50.710;7.180;2023-07-08T03:23:13;18.40;99.90
13251;DHT22;6692;50.710;7.180;2023-07-08T03:25:14;18.40;99.90
13251;DHT22;6692;50.710;7.180;2023-07-08T03:27:15;18.40;99.90
13251;DHT22;6692;50.710;7.180;2023-07-08T03:29:17;18.40;99.90
13251;DHT22;6692;50.710;7.180;2023-07-08T03:31:16;18.40;99.90
13251;DHT22;6692;50.710;7.180;2023-07-08T03:33:18;18.40;99.90
13251;DHT22;6692;50.710;7.180;2023-07-08T03:35:18;18.40;99.90
13251;DHT22;6692;50.710;7.180;2023-07-08T03:37:19;18.40;99.90
13251;DHT22;6692;50.710;7.180;2023-07-08T03:39:22;18.30;99.90
13251;DHT22;6692;50.710;7.180;2023-07-08T03:41:21;18.30;99.90
13251;DHT22;6692;50.710;7.180;2023-07-08T03:43:22;18.30;99.90
13251;DHT22;6692;50.710;7.180;2023-07-08T03:45:23;18.30;99.90
13251;DHT22;6692;50.710;7.180;2023-07-08T03:47:23;18.30;99.90
13251;DHT22;6692;50.710;7.180;2023-07-08T03:49:24;18.30;99.90
13251;DHT22;6692;50.710;7.180;2023-07-08T03:51:27;18.30;99.90
13251;DHT22;6692;50.710;7.180;2023-07-08T03:53:26;18.30;99.90
13251;DHT22;6692;50.710;7.180;2023-07-08T03:55:27;18.30;99.90
13251;DHT22;6692;50.710;7.180;2023-07-08T03:57:29;18.30;99.90
13251;DHT22;6692;50.710;7.180;2023-07-08T03:59:29;18.30;99.90
13251;DHT22;6692;50.710;7.180;2023-07-08T04:01:31;18.30;99.90
13251;DHT22;6692;50.710;7.180;2023-07-08T04:03:31;18.30;99.90
13251;DHT22;6692;50.710;7.180;2023-07-08T04:05:32;18.30;99.90
13251;DHT22;6692;50.710;7.180;2023-07-08T04:07:33;18.30;99.90
13251;DHT22;6692;50.710;7.180;2023-07-08T04:09:33;18.40;99.90
13251;DHT22;6692;50.710;7.180;2023-07-08T04:11:34;18.40;99.90
13251;DHT22;6692;50.710;7.180;2023-07-08T04:13:35;18.40;99.90
13251;DHT22;6692;50.710;7.180;2023-07-08T04:15:35;18.40;99.90
13251;DHT22;6692;50.710;7.180;2023-07-08T04:17:41;18.40;99.90
13251;DHT22;6692;50.710;7.180;2023-07-08T04:19:41;18.40;99.90
13251;DHT22;6692;50.710;7.180;2023-07-08T04:21:43;18.40;99.90
13251;DHT22;6692;50.710;7.180;2023-07-08T04:23:43;18.40;99.90
13251;DHT22;6692;50.710;7.180;2023-07-08T04:25:44;18.40;99.90
13251;DHT22;6692;50.710;7.180;2023-07-08T04:27:45;18.40;99.90
13251;DHT22;6692;50.710;7.180;2023-07-08T04:29:45;18.40;99.90
13251;DHT22;6692;50.710;7.180;2023-07-08T04:31:46;18.40;99.90
13251;DHT22;6692;50.710;7.180;2023-07-08T04:33:47;18.40;99.90
13251;DHT22;6692;50.710;7.180;2023-07-08T04:35:47;18.40;99.90
13251;DHT22;6692;50.710;7.180;2023-07-08T04:37:49;18.40;99.90
13251;DHT22;6692;50.710;7.180;2023-07-08T04:39:49;18.30;99.90
13251;DHT22;6692;50.710;7.180;2023-07-08T04:41:50;18.30;99.90
13251;DHT22;6692;50.710;7.180;2023-07-08T04:43:52;18.40;99.90
13251;DHT22;6692;50.710;7.180;2023-07-08T04:45:52;18.40;99.90
13251;DHT22;6692;50.710;7.180;2023-07-08T04:47:53;18.40;99.90
13251;DHT22;6692;50.710;7.180;2023-07-08T04:49:54;18.50;99.90
13251;DHT22;6692;50.710;7.180;2023-07-08T04:51:55;18.50;99.90
13251;DHT22;6692;50.710;7.180;2023-07-08T04:53:56;18.50;99.90
13251;DHT22;6692;50.710;7.180;2023-07-08T04:55:57;18.60;99.90
13251;DHT22;6692;50.710;7.180;2023-07-08T04:57:58;18.60;99.90
13251;DHT22;6692;50.710;7.180;2023-07-08T04:59:58;18.60;99.90
13251;DHT22;6692;50.710;7.180;2023-07-08T05:01:59;18.70;99.90
13251;DHT22;6692;50.710;7.180;2023-07-08T05:04:00;18.70;99.90
13251;DHT22;6692;50.710;7.180;2023-07-08T05:06:01;18.80;99.90
13251;DHT22;6692;50.710;7.180;2023-07-08T05:08:02;18.80;99.90
13251;DHT22;6692;50.710;7.180;2023-07-08T05:10:03;18.80;99.90
13251;DHT22;6692;50.710;7.180;2023-07-08T05:12:06;18.90;99.90
13251;DHT22;6692;50.710;7.180;2023-07-08T05:14:07;19.00;99.90
13251;DHT22;6692;50.710;7.180;2023-07-08T05:16:07;19.00;99.90
13251;DHT22;6692;50.710;7.180;2023-07-08T05:18:08;19.20;99.90
13251;DHT22;6692;50.710;7.180;2023-07-08T05:20:12;19.30;99.90
13251;DHT22;6692;50.710;7.180;2023-07-08T05:22:12;19.40;99.90
13251;DHT22;6692;50.710;7.180;2023-07-08T05:24:12;19.50;99.90
13251;DHT22;6692;50.710;7.180;2023-07-08T05:26:13;19.80;99.90
13251;DHT22;6692;50.710;7.180;2023-07-08T05:28:14;19.80;99.90
13251;DHT22;6692;50.710;7.180;2023-07-08T05:30:16;20.00;99.90
13251;DHT22;6692;50.710;7.180;2023-07-08T05:32:17;20.40;99.90
13251;DHT22;6692;50.710;7.180;2023-07-08T05:34:18;20.50;99.90
13251;DHT22;6692;50.710;7.180;2023-07-08T05:36:19;20.50;99.90
13251;DHT22;6692;50.710;7.180;2023-07-08T05:38:20;20.70;99.90
13251;DHT22;6692;50.710;7.180;2023-07-08T05:40:21;20.90;99.90
13251;DHT22;6692;50.710;7.180;2023-07-08T05:42:22;20.90;99.90
13251;DHT22;6692;50.710;7.180;2023-07-08T05:44:23;21.10;99.90
13251;DHT22;6692;50.710;7.180;2023-07-08T05:46:24;21.10;99.90
13251;DHT22;6692;50.710;7.180;2023-07-08T05:48:26;21.20;99.90
13251;DHT22;6692;50.710;7.180;2023-07-08T05:50:26;21.20;99.90
13251;DHT22;6692;50.710;7.180;2023-07-08T05:52:27;21.30;99.90
13251;DHT22;6692;50.710;7.180;2023-07-08T05:54:28;21.30;99.90
13251;DHT22;6692;50.710;7.180;2023-07-08T05:56:29;21.20;99.90
13251;DHT22;6692;50.710;7.180;2023-07-08T05:58:30;21.20;99.90
13251;DHT22;6692;50.710;7.180;2023-07-08T06:00:31;21.10;99.90
13251;DHT22;6692;50.710;7.180;2023-07-08T06:02:32;21.00;99.90
13251;DHT22;6692;50.710;7.180;2023-07-08T06:04:33;21.00;99.90
13251;DHT22;6692;50.710;7.180;2023-07-08T06:06:33;21.00;99.90
13251;DHT22;6692;50.710;7.180;2023-07-08T06:08:35;20.90;99.90
13251;DHT22;6692;50.710;7.180;2023-07-08T06:10:41;20.90;99.90
13251;DHT22;6692;50.710;7.180;2023-07-08T06:12:38;20.90;99.90
13251;DHT22;6692;50.710;7.180;2023-07-08T06:14:38;20.90;99.90
13251;DHT22;6692;50.710;7.180;2023-07-08T06:16:40;20.90;99.90
13251;DHT22;6692;50.710;7.180;2023-07-08T06:18:40;20.90;99.90
13251;DHT22;6692;50.710;7.180;2023-07-08T06:20:41;20.90;99.90
13251;DHT22;6692;50.710;7.180;2023-07-08T06:22:43;21.00;99.90
13251;DHT22;6692;50.710;7.180;2023-07-08T06:24:43;21.00;99.90
13251;DHT22;6692;50.710;7.180;2023-07-08T06:26:45;21.10;99.90
13251;DHT22;6692;50.710;7.180;2023-07-08T06:28:45;21.10;99.90
13251;DHT22;6692;50.710;7.180;2023-07-08T06:30:46;21.10;99.90
13251;DHT22;6692;50.710;7.180;2023-07-08T06:32:47;21.20;99.90
13251;DHT22;6692;50.710;7.180;2023-07-08T06:34:47;21.20;99.90
13251;DHT22;6692;50.710;7.180;2023-07-08T06:36:49;21.30;99.90
13251;DHT22;6692;50.710;7.180;2023-07-08T06:38:49;21.30;99.90
13251;DHT22;6692;50.710;7.180;2023-07-08T06:40:50;21.40;99.90
13251;DHT22;6692;50.710;7.180;2023-07-08T06:42:51;21.50;99.90
13251;DHT22;6692;50.710;7.180;2023-07-08T06:44:51;21.60;99.90
13251;DHT22;6692;50.710;7.180;2023-07-08T06:46:52;21.60;99.90
13251;DHT22;6692;50.710;7.180;2023-07-08T06:48:53;21.60;99.90
13251;DHT22;6692;50.710;7.180;2023-07-08T06:50:54;21.70;99.90
13251;DHT22;6692;50.710;7.180;2023-07-08T06:52:55;21.90;99.40
13251;DHT22;6692;50.710;7.180;2023-07-08T06:54:56;21.90;99.40
13251;DHT22;6692;50.710;7.180;2023-07-08T06:56:56;22.00;99.30
13251;DHT22;6692;50.710;7.180;2023-07-08T06:58:57;22.10;99.40
13251;DHT22;6692;50.710;7.180;2023-07-08T07:00:58;22.10;99.40
13251;DHT22;6692;50.710;7.180;2023-07-08T07:02:58;22.10;99.20
13251;DHT22;6692;50.710;7.180;2023-07-08T07:04:59;22.30;98.80
13251;DHT22;6692;50.710;7.180;2023-07-08T07:07:00;22.70;98.50
13251;DHT22;6692;50.710;7.180;2023-07-08T07:09:01;22.70;98.50
13251;DHT22;6692;50.710;7.180;2023-07-08T07:11:02;22.90;98.30
13251;DHT22;6692;50.710;7.180;2023-07-08T07:13:02;23.10;98.10
13251;DHT22;6692;50.710;7.180;2023-07-08T07:15:04;23.20;98.00
13251;DHT22;6692;50.710;7.180;2023-07-08T07:17:06;23.20;97.70
13251;DHT22;6692;50.710;7.180;2023-07-08T07:19:07;23.20;97.40
13251;DHT22;6692;50.710;7.180;2023-07-08T07:21:08;23.20;97.00
13251;DHT22;6692;50.710;7.180;2023-07-08T07:23:09;23.20;96.30
13251;DHT22;6692;50.710;7.180;2023-07-08T07:25:10;23.20;96.20
13251;DHT22;6692;50.710;7.180;2023-07-08T07:27:11;23.20;96.20
13251;DHT22;6692;50.710;7.180;2023-07-08T07:29:13;23.20;96.00
13251;DHT22;6692;50.710;7.180;2023-07-08T07:31:12;23.20;96.00
13251;DHT22;6692;50.710;7.180;2023-07-08T07:33:12;23.20;96.00
13251;DHT22;6692;50.710;7.180;2023-07-08T07:35:13;23.20;95.70
13251;DHT22;6692;50.710;7.180;2023-07-08T07:37:14;23.20;94.60
13251;DHT22;6692;50.710;7.180;2023-07-08T07:39:15;23.40;93.10
13251;DHT22;6692;50.710;7.180;2023-07-08T07:41:15;23.40;92.60
13251;DHT22;6692;50.710;7.180;2023-07-08T07:43:16;23.50;92.60
13251;DHT22;6692;50.710;7.180;2023-07-08T07:45:17;23.60;91.80
13251;DHT22;6692;50.710;7.180;2023-07-08T07:47:18;23.70;91.10
13251;DHT22;6692;50.710;7.180;2023-07-08T07:49:19;23.70;91.10
13251;DHT22;6692;50.710;7.180;2023-07-08T07:51:20;23.90;89.00
13251;DHT22;6692;50.710;7.180;2023-07-08T07:53:21;23.90;88.90
13251;DHT22;6692;50.710;7.180;2023-07-08T07:55:22;24.20;87.50
13251;DHT22;6692;50.710;7.180;2023-07-08T07:57:23;24.10;87.40
13251;DHT22;6692;50.710;7.180;2023-07-08T07:59:24;24.30;86.50
13251;DHT22;6692;50.710;7.180;2023-07-08T08:01:24;24.40;85.40
13251;DHT22;6692;50.710;7.180;2023-07-08T08:03:25;24.50;84.50
13251;DHT22;6692;50.710;7.180;2023-07-08T08:05:26;24.60;83.30
13251;DHT22;6692;50.710;7.180;2023-07-08T08:07:27;24.80;82.20
13251;DHT22;6692;50.710;7.180;2023-07-08T08:09:29;24.80;83.20
13251;DHT22;6692;50.710;7.180;2023-07-08T08:11:29;24.80;83.10
13251;DHT22;6692;50.710;7.180;2023-07-08T08:13:30;24.90;82.70
13251;DHT22;6692;50.710;7.180;2023-07-08T08:15:31;25.00;79.50
13251;DHT22;6692;50.710;7.180;2023-07-08T08:17:32;25.00;79.50
13251;DHT22;6692;50.710;7.180;2023-07-08T08:19:34;25.00;80.00
13251;DHT22;6692;50.710;7.180;2023-07-08T08:21:34;25.00;79.60
13251;DHT22;6692;50.710;7.180;2023-07-08T08:23:36;25.20;79.40
13251;DHT22;6692;50.710;7.180;2023-07-08T08:25:36;25.20;79.40
13251;DHT22;6692;50.710;7.180;2023-07-08T08:27:37;25.20;80.10
13251;DHT22;6692;50.710;7.180;2023-07-08T08:29:38;25.40;78.10
13251;DHT22;6692;50.710;7.180;2023-07-08T08:31:39;25.40;78.00
13251;DHT22;6692;50.710;7.180;2023-07-08T08:33:40;25.50;78.00
13251;DHT22;6692;50.710;7.180;2023-07-08T08:35:42;25.50;78.80
13251;DHT22;6692;50.710;7.180;2023-07-08T08:37:42;25.50;78.80
13251;DHT22;6692;50.710;7.180;2023-07-08T08:39:43;25.50;79.50
13251;DHT22;6692;50.710;7.180;2023-07-08T08:41:43;25.40;79.90
13251;DHT22;6692;50.710;7.180;2023-07-08T08:43:44;25.40;81.50
13251;DHT22;6692;50.710;7.180;2023-07-08T08:46:23;25.30;81.30
13251;DHT22;6692;50.710;7.180;2023-07-08T08:48:16;25.30;80.90
13251;DHT22;6692;50.710;7.180;2023-07-08T08:50:39;25.40;81.10
13251;DHT22;6692;50.710;7.180;2023-07-08T08:52:37;25.50;80.50
13251;DHT22;6692;50.710;7.180;2023-07-08T08:54:37;25.60;79.00
13251;DHT22;6692;50.710;7.180;2023-07-08T08:56:48;25.60;78.60
13251;DHT22;6692;50.710;7.180;2023-07-08T08:58:55;25.70;79.00
13251;DHT22;6692;50.710;7.180;2023-07-08T09:00:55;25.70;78.80
13251;DHT22;6692;50.710;7.180;2023-07-08T09:03:02;25.70;79.60
13251;DHT22;6692;50.710;7.180;2023-07-08T09:05:02;25.60;80.30
13251;DHT22;6692;50.710;7.180;2023-07-08T09:07:05;25.50;80.50
13251;DHT22;6692;50.710;7.180;2023-07-08T09:09:04;25.50;80.20
13251;DHT22;6692;50.710;7.180;2023-07-08T09:11:18;25.60;81.00
13251;DHT22;6692;50.710;7.180;2023-07-08T09:13:16;25.50;80.40
13251;DHT22;6692;50.710;7.180;2023-07-08T09:15:16;25.60;80.10
13251;DHT22;6692;50.710;7.180;2023-07-08T09:17:33;25.70;78.70
13251;DHT22;6692;50.710;7.180;2023-07-08T09:19:37;25.80;79.30
13251;DHT22;6692;50.710;7.180;2023-07-08T09:22:12;25.80;79.30
13251;DHT22;6692;50.710;7.180;2023-07-08T09:24:17;25.90;78.40
13251;DHT22;6692;50.710;7.180;2023-07-08T09:26:18;26.10;76.80
13251;DHT22;6692;50.710;7.180;2023-07-08T09:28:18;26.00;76.70
13251;DHT22;6692;50.710;7.180;2023-07-08T09:30:19;26.20;76.50
13251;DHT22;6692;50.710;7.180;2023-07-08T09:32:20;26.20;76.90
13251;DHT22;6692;50.710;7.180;2023-07-08T09:34:22;26.10;77.30
13251;DHT22;6692;50.710;7.180;2023-07-08T09:36:23;26.10;76.80
13251;DHT22;6692;50.710;7.180;2023-07-08T09:38:22;26.00;76.70
13251;DHT22;6692;50.710;7.180;2023-07-08T09:40:29;26.00;77.30
13251;DHT22;6692;50.710;7.180;2023-07-08T09:42:31;26.00;78.10
13251;DHT22;6692;50.710;7.180;2023-07-08T09:44:30;26.00;78.10
13251;DHT22;6692;50.710;7.180;2023-07-08T09:46:35;26.00;78.10
13251;DHT22;6692;50.710;7.180;2023-07-08T09:48:33;26.10;78.10
13251;DHT22;6692;50.710;7.180;2023-07-08T09:50:33;26.20;78.10
13251;DHT22;6692;50.710;7.180;2023-07-08T09:52:34;26.20;78.30
13251;DHT22;6692;50.710;7.180;2023-07-08T09:54:34;26.20;78.40
13251;DHT22;6692;50.710;7.180;2023-07-08T09:56:36;26.10;80.10
13251;DHT22;6692;50.710;7.180;2023-07-08T09:58:37;26.10;79.30
13251;DHT22;6692;50.710;7.180;2023-07-08T10:00:39;26.20;79.20
13251;DHT22;6692;50.710;7.180;2023-07-08T10:02:45;26.20;78.70
13251;DHT22;6692;50.710;7.180;2023-07-08T10:04:45;26.40;78.30
13251;DHT22;6692;50.710;7.180;2023-07-08T10:06:45;26.40;78.30
13251;DHT22;6692;50.710;7.180;2023-07-08T10:08:47;26.40;78.10
13251;DHT22;6692;50.710;7.180;2023-07-08T10:10:57;26.50;78.10
13251;DHT22;6692;50.710;7.180;2023-07-08T10:12:55;26.40;78.40
13251;DHT22;6692;50.710;7.180;2023-07-08T10:14:56;26.40;78.30
13251;DHT22;6692;50.710;7.180;2023-07-08T10:16:55;26.50;75.00
13251;DHT22;6692;50.710;7.180;2023-07-08T10:18:56;26.80;74.90
13251;DHT22;6692;50.710;7.180;2023-07-08T10:21:21;26.90;75.10
13251;DHT22;6692;50.710;7.180;2023-07-08T10:23:17;26.90;75.60
13251;DHT22;6692;50.710;7.180;2023-07-08T10:25:32;26.80;76.20
13251;DHT22;6692;50.710;7.180;2023-07-08T10:27:40;26.80;76.90
13251;DHT22;6692;50.710;7.180;2023-07-08T10:29:49;27.00;75.40
13251;DHT22;6692;50.710;7.180;2023-07-08T10:32:00;27.00;75.70
13251;DHT22;6692;50.710;7.180;2023-07-08T10:34:06;27.00;75.60
13251;DHT22;6692;50.710;7.180;2023-07-08T10:36:11;27.00;76.20
13251;DHT22;6692;50.710;7.180;2023-07-08T10:40:34;27.00;75.90
13251;DHT22;6692;50.710;7.180;2023-07-08T10:44:52;27.20;73.80
13251;DHT22;6692;50.710;7.180;2023-07-08T10:50:28;27.70;71.80
13251;DHT22;6692;50.710;7.180;2023-07-08T10:51:45;27.80;70.80
13251;DHT22;6692;50.710;7.180;2023-07-08T10:56:13;28.00;70.00
13251;DHT22;6692;50.710;7.180;2023-07-08T10:58:20;28.00;70.00
13251;DHT22;6692;50.710;7.180;2023-07-08T11:00:25;28.20;67.40
13251;DHT22;6692;50.710;7.180;2023-07-08T11:04:57;28.20;68.90
13251;DHT22;6692;50.710;7.180;2023-07-08T11:06:57;28.30;69.10
13251;DHT22;6692;50.710;7.180;2023-07-08T11:08:57;28.30;68.10
13251;DHT22;6692;50.710;7.180;2023-07-08T11:11:06;28.50;66.80
13251;DHT22;6692;50.710;7.180;2023-07-08T11:13:06;28.60;65.60
13251;DHT22;6692;50.710;7.180;2023-07-08T11:15:13;28.60;66.30
13251;DHT22;6692;50.710;7.180;2023-07-08T11:17:16;28.60;66.50
13251;DHT22;6692;50.710;7.180;2023-07-08T11:19:18;28.40;67.80
13251;DHT22;6692;50.710;7.180;2023-07-08T11:21:24;28.40;67.70
13251;DHT22;6692;50.710;7.180;2023-07-08T11:23:29;28.50;67.10
13251;DHT22;6692;50.710;7.180;2023-07-08T11:25:27;28.50;67.30
13251;DHT22;6692;50.710;7.180;2023-07-08T11:27:29;28.60;67.50
13251;DHT22;6692;50.710;7.180;2023-07-08T11:29:37;28.70;67.10
13251;DHT22;6692;50.710;7.180;2023-07-08T11:31:35;28.70;65.70
13251;DHT22;6692;50.710;7.180;2023-07-08T11:33:36;29.00;65.60
13251;DHT22;6692;50.710;7.180;2023-07-08T11:35:43;29.00;66.20
13251;DHT22;6692;50.710;7.180;2023-07-08T11:37:42;28.90;66.40
13251;DHT22;6692;50.710;7.180;2023-07-08T11:39:43;29.00;66.50
13251;DHT22;6692;50.710;7.180;2023-07-08T11:41:44;29.00;66.30
13251;DHT22;6692;50.710;7.180;2023-07-08T11:43:49;29.00;66.30
13251;DHT22;6692;50.710;7.180;2023-07-08T11:45:49;29.40;63.50
13251;DHT22;6692;50.710;7.180;2023-07-08T11:47:50;29.50;64.20
13251;DHT22;6692;50.710;7.180;2023-07-08T11:49:51;29.40;64.00
13251;DHT22;6692;50.710;7.180;2023-07-08T11:51:52;29.50;62.80
13251;DHT22;6692;50.710;7.180;2023-07-08T11:53:59;29.60;63.30
13251;DHT22;6692;50.710;7.180;2023-07-08T11:56:02;29.80;61.90
13251;DHT22;6692;50.710;7.180;2023-07-08T11:58:06;29.70;62.70
13251;DHT22;6692;50.710;7.180;2023-07-08T12:00:17;29.70;62.80
13251;DHT22;6692;50.710;7.180;2023-07-08T12:02:17;29.60;63.30
13251;DHT22;6692;50.710;7.180;2023-07-08T12:04:24;29.50;63.40
13251;DHT22;6692;50.710;7.180;2023-07-08T12:06:42;29.40;64.00
13251;DHT22;6692;50.710;7.180;2023-07-08T12:08:42;29.40;64.30
13251;DHT22;6692;50.710;7.180;2023-07-08T12:10:50;29.40;63.40
13251;DHT22;6692;50.710;7.180;2023-07-08T12:12:47;29.30;63.70
13251;DHT22;6692;50.710;7.180;2023-07-08T12:14:49;29.30;64.80
13251;DHT22;6692;50.710;7.180;2023-07-08T12:16:49;29.20;64.70
13251;DHT22;6692;50.710;7.180;2023-07-08T12:18:50;29.20;65.70
13251;DHT22;6692;50.710;7.180;2023-07-08T12:20:53;29.10;66.70
13251;DHT22;6692;50.710;7.180;2023-07-08T12:22:52;29.00;66.60
13251;DHT22;6692;50.710;7.180;2023-07-08T12:24:54;29.00;67.00
13251;DHT22;6692;50.710;7.180;2023-07-08T12:26:54;29.00;67.00
13251;DHT22;6692;50.710;7.180;2023-07-08T12:28:56;29.00;67.50
13251;DHT22;6692;50.710;7.180;2023-07-08T12:30:56;28.90;68.00
13251;DHT22;6692;50.710;7.180;2023-07-08T12:32:57;29.20;66.90
13251;DHT22;6692;50.710;7.180;2023-07-08T12:34:57;29.80;65.00
13251;DHT22;6692;50.710;7.180;2023-07-08T12:36:58;30.60;62.60
13251;DHT22;6692;50.710;7.180;2023-07-08T12:38:58;31.50;60.20
13251;DHT22;6692;50.710;7.180;2023-07-08T12:41:01;33.40;57.80
13251;DHT22;6692;50.710;7.180;2023-07-08T12:43:01;33.30;57.70
13251;DHT22;6692;50.710;7.180;2023-07-08T12:45:02;34.20;57.10
13251;DHT22;6692;50.710;7.180;2023-07-08T12:47:03;35.60;55.70
13251;DHT22;6692;50.710;7.180;2023-07-08T12:49:04;35.50;55.60
13251;DHT22;6692;50.710;7.180;2023-07-08T12:51:09;36.60;54.20
13251;DHT22;6692;50.710;7.180;2023-07-08T12:53:07;36.50;54.10
13251;DHT22;6692;50.710;7.180;2023-07-08T12:55:09;37.00;53.40
13251;DHT22;6692;50.710;7.180;2023-07-08T12:57:10;37.40;53.10
13251;DHT22;6692;50.710;7.180;2023-07-08T12:59:12;37.80;52.90
13251;DHT22;6692;50.710;7.180;2023-07-08T13:01:15;38.20;52.80
13251;DHT22;6692;50.710;7.180;2023-07-08T13:03:16;38.60;51.70
13251;DHT22;6692;50.710;7.180;2023-07-08T13:05:15;38.60;51.70
13251;DHT22;6692;50.710;7.180;2023-07-08T13:07:22;38.90;51.30
13251;DHT22;6692;50.710;7.180;2023-07-08T13:09:29;39.10;51.20
13251;DHT22;6692;50.710;7.180;2023-07-08T13:11:26;39.30;51.10
13251;DHT22;6692;50.710;7.180;2023-07-08T13:13:28;39.40;49.70